San Acacia, NM (87831)

1:17 PM MST on February 26, 2017 (GMT -0700)
Community Road | | Change Station

Elev 4645 ft 34.20 °N, 106.91 °W | Updated 7 seconds ago

Overcast
Overcast
52.6 °F
Feels Like 52.6 °F
N
3.4
Wind Variable Wind from SW
Gusts 12.1 mph

Today
High -- | Low -- °F
--% Chance of Precip.
Yesterday
High -- | Low -- °F
Precip. -- in
Pressure 29.92 in
Visibility 10.0 miles
Clouds Scattered Clouds 5000 ft
Overcast 6000 ft
Dew Point 25 °F
Humidity 34%
Rainfall 0.00 in
Snow Depth Not available.
6:39 AM 6:01 PM
New Moon, 0% visible
METAR KONM 261955Z AUTO 21003KT 10SM SCT050 OVC060 09/M07 A2992 RMK AO2 T00891067
Pressure 29.92 in
Visibility 10.0 miles
Clouds Scattered Clouds 5000 ft
Overcast 6000 ft
Dew Point 25 °F
Humidity 34%
Rainfall 0.00 in
Snow Depth Not available.
6:39 AM 6:01 PM
New Moon, 0% visible
METAR KONM 261955Z AUTO 21003KT 10SM SCT050 OVC060 09/M07 A2992 RMK AO2 T00891067

Get Your Daily Forecast Email!

Thanks for signing up!

Be on the lookout for a verification email in your inbox.

You'll start receiving the daily forecast at 8 AM.

×

10-Day Weather Forecast

Almanac

Astronomy

Feb. 26, 2017 Rise Set
Actual Time
Civil Twilight
Nautical Twilight
Astronomical Twilight
Moon
Length of Visible Light
Length of Day
Tomorrow will be .
, % of the Moon is Illuminated

Today's Extremes

State Highs State Lows

Community

WunderPhotos

Upload Photos

1,962,540 photos uploaded!

WunderBlog® & News

Nearby

Air Quality

  Air Quality AQ Index Pollutant
Not available.

Snow Depth

Station Depth Elevation

Earthquake Activity

City Distance Mag. Time & Date
Minimum magnitude displayed is 2.5.

Coastal Water Temperatures

Place Temperature

Stations

Nearby Weather Stations

Station Location Temp. Windchill Dew Point Humidity Wind Precip. Elev Updated Type
                   

Watches & Warnings

There are currently no watches in effect.